createdAt,value
2018-04-02T00:01:51.294Z,2.40
2018-04-02T00:04:18.879Z,2.40
2018-04-02T00:06:46.472Z,2.40
2018-04-02T00:09:14.820Z,2.30
2018-04-02T00:11:42.447Z,2.30
2018-04-02T00:14:10.033Z,2.30
2018-04-02T00:16:37.623Z,2.30
2018-04-02T00:19:05.246Z,2.30
2018-04-02T00:21:32.825Z,2.20
2018-04-02T00:24:01.247Z,2.10
2018-04-02T00:26:29.575Z,2.10
2018-04-02T00:28:57.176Z,2.10
2018-04-02T00:31:25.524Z,2.20
2018-04-02T00:33:53.200Z,2.10
2018-04-02T00:36:20.783Z,2.10
2018-04-02T00:38:48.364Z,2.10
2018-04-02T00:41:15.981Z,2.00
2018-04-02T00:43:43.560Z,2.00
2018-04-02T00:46:11.176Z,1.90
2018-04-02T00:48:38.752Z,1.90
2018-04-02T00:51:06.347Z,1.80
2018-04-02T00:53:33.938Z,1.80
2018-04-02T00:56:02.311Z,1.80
2018-04-02T00:58:29.896Z,1.70
2018-04-02T01:00:57.544Z,1.70
2018-04-02T01:03:25.128Z,1.70
2018-04-02T01:05:52.700Z,1.70
2018-04-02T01:08:20.305Z,1.70
2018-04-02T01:10:47.892Z,1.70
2018-04-02T01:13:15.479Z,1.70
2018-04-02T01:15:43.077Z,1.60
2018-04-02T01:18:10.684Z,1.60
2018-04-02T01:20:39.020Z,1.60
2018-04-02T01:23:06.624Z,1.50
2018-04-02T01:25:34.202Z,1.60
2018-04-02T01:28:01.780Z,1.50
2018-04-02T01:30:29.375Z,1.50
2018-04-02T01:32:56.956Z,1.50
2018-04-02T01:35:24.556Z,1.50
2018-04-02T01:37:52.144Z,1.40
2018-04-02T01:40:19.735Z,1.40
2018-04-02T01:42:47.311Z,1.40
2018-04-02T01:45:14.920Z,1.30
2018-04-02T01:47:42.502Z,1.30
2018-04-02T01:50:10.100Z,1.30
2018-04-02T01:52:37.705Z,1.30
2018-04-02T01:55:05.290Z,1.30
2018-04-02T01:57:32.920Z,1.30
2018-04-02T02:00:00.505Z,1.30
2018-04-02T02:02:28.114Z,1.40
2018-04-02T02:04:56.464Z,1.30
2018-04-02T02:07:24.068Z,1.30
2018-04-02T02:09:51.650Z,1.30
2018-04-02T02:12:19.997Z,1.30
2018-04-02T02:14:47.588Z,1.20
2018-04-02T02:17:15.180Z,1.30
2018-04-02T02:19:42.812Z,1.30
2018-04-02T02:22:10.391Z,1.30
2018-04-02T02:24:37.969Z,1.30
2018-04-02T02:27:05.580Z,1.30
2018-04-02T02:29:33.914Z,1.20
2018-04-02T02:32:01.603Z,1.20
2018-04-02T02:34:29.226Z,1.20
2018-04-02T02:36:57.572Z,1.30
2018-04-02T02:39:25.150Z,1.20
2018-04-02T02:41:52.908Z,1.30
2018-04-02T02:44:20.503Z,1.30
2018-04-02T02:46:48.087Z,1.40
2018-04-02T02:49:15.687Z,1.40
2018-04-02T02:51:44.036Z,1.40
2018-04-02T02:54:11.617Z,1.40
2018-04-02T02:56:39.268Z,1.50
2018-04-02T02:59:06.856Z,1.50
2018-04-02T03:01:34.429Z,1.50
2018-04-02T03:04:02.055Z,1.50
2018-04-02T03:06:29.647Z,1.60
2018-04-02T03:08:57.229Z,1.60
2018-04-02T03:11:24.851Z,1.70
2018-04-02T03:13:53.209Z,1.70
2018-04-02T03:16:20.800Z,1.70
2018-04-02T03:18:48.450Z,1.80
2018-04-02T03:21:16.026Z,1.80
2018-04-02T03:23:43.616Z,1.80
2018-04-02T03:26:11.219Z,1.80
2018-04-02T03:28:39.560Z,1.90
2018-04-02T03:31:07.145Z,1.80
2018-04-02T03:33:34.761Z,1.80
2018-04-02T03:36:02.358Z,1.90
2018-04-02T03:38:29.949Z,1.90
2018-04-02T03:40:57.561Z,1.90
2018-04-02T03:43:25.148Z,1.80
2018-04-02T03:45:53.491Z,1.80
2018-04-02T03:48:21.116Z,1.80
2018-04-02T03:50:49.476Z,1.80
2018-04-02T03:53:17.071Z,1.70
2018-04-02T03:55:45.435Z,1.80
2018-04-02T03:58:13.015Z,1.80
2018-04-02T04:00:40.595Z,1.80
2018-04-02T04:03:08.214Z,1.80
2018-04-02T04:05:35.803Z,1.90
2018-04-02T04:08:03.394Z,1.90
2018-04-02T04:10:31.003Z,1.90
2018-04-02T04:12:59.353Z,1.80
2018-04-02T04:15:26.967Z,1.80
2018-04-02T04:17:55.335Z,1.80
2018-04-02T04:20:22.904Z,1.80
2018-04-02T04:22:50.483Z,1.80
2018-04-02T04:25:18.083Z,1.90
2018-04-02T04:27:46.431Z,1.90
2018-04-02T04:30:14.012Z,1.90
2018-04-02T04:32:41.620Z,1.90
2018-04-02T04:35:10.064Z,2.00
2018-04-02T04:37:37.649Z,2.00
2018-04-02T04:40:05.268Z,2.10
2018-04-02T04:42:32.852Z,2.10
2018-04-02T04:45:00.437Z,2.00
2018-04-02T04:47:28.041Z,2.00
2018-04-02T04:49:55.620Z,2.00
2018-04-02T04:52:23.205Z,2.00
2018-04-02T04:54:50.815Z,2.00
2018-04-02T04:57:18.388Z,2.00
2018-04-02T04:59:45.963Z,2.00
2018-04-02T05:02:13.579Z,2.00
2018-04-02T05:04:41.242Z,2.00
2018-04-02T05:07:08.918Z,2.00
2018-04-02T05:09:36.519Z,1.90
2018-04-02T05:12:04.088Z,1.80
2018-04-02T05:14:31.663Z,1.80
2018-04-02T05:17:00.056Z,1.70
2018-04-02T05:19:27.641Z,1.70
2018-04-02T05:21:55.223Z,1.80
2018-04-02T05:24:23.600Z,1.80
2018-04-02T05:26:51.189Z,1.70
2018-04-02T05:29:19.636Z,1.70
2018-04-02T05:31:47.245Z,1.70
2018-04-02T05:34:14.828Z,1.70
2018-04-02T05:36:43.196Z,1.80
2018-04-02T05:39:10.815Z,1.70
2018-04-02T05:41:38.392Z,1.80
2018-04-02T05:44:05.971Z,1.90
2018-04-02T05:46:33.575Z,1.90
2018-04-02T05:49:01.151Z,2.00
2018-04-02T05:51:28.732Z,2.20
2018-04-02T05:53:56.343Z,2.40
2018-04-02T05:56:23.937Z,2.50
2018-04-02T05:58:51.517Z,2.60
2018-04-02T06:01:19.129Z,2.70
2018-04-02T06:03:46.715Z,2.70
2018-04-02T06:06:15.070Z,3.10
2018-04-02T06:08:42.693Z,3.00
2018-04-02T06:11:10.279Z,3.30
2018-04-02T06:13:37.885Z,3.40
2018-04-02T06:16:05.501Z,3.40
2018-04-02T06:18:33.855Z,3.80
2018-04-02T06:21:01.440Z,3.70
2018-04-02T06:23:29.102Z,4.00
2018-04-02T06:25:56.689Z,4.00
2018-04-02T06:28:24.276Z,4.00
2018-04-02T06:30:51.877Z,4.10
2018-04-02T06:33:19.457Z,4.30
2018-04-02T06:35:47.040Z,4.60
2018-04-02T06:38:14.638Z,4.80
2018-04-02T06:40:42.220Z,4.90
2018-04-02T06:43:09.794Z,5.60
2018-04-02T06:45:37.408Z,6.20
2018-04-02T06:48:05.751Z,6.10
2018-04-02T06:50:33.336Z,6.00
2018-04-02T06:53:00.990Z,5.80
2018-04-02T06:55:28.549Z,5.60
2018-04-02T06:57:56.134Z,5.20
2018-04-02T07:00:23.740Z,5.10
2018-04-02T07:02:51.324Z,4.70
2018-04-02T07:05:18.915Z,4.50
2018-04-02T07:07:47.293Z,4.70
2018-04-02T07:10:15.627Z,4.80
2018-04-02T07:12:43.216Z,4.80
2018-04-02T07:15:10.815Z,4.90
2018-04-02T07:17:38.408Z,5.00
2018-04-02T07:20:06.757Z,4.90
2018-04-02T07:22:34.360Z,4.80
2018-04-02T07:25:01.928Z,4.80
2018-04-02T07:27:29.499Z,4.70
2018-04-02T07:29:57.116Z,4.70
2018-04-02T07:32:24.705Z,4.80
2018-04-02T07:34:52.391Z,5.00
2018-04-02T07:37:20.482Z,5.20
2018-04-02T07:39:48.153Z,5.50
2018-04-02T07:42:15.736Z,5.40
2018-04-02T07:44:43.344Z,5.50
2018-04-02T07:47:11.693Z,5.80
2018-04-02T07:49:39.280Z,5.70
2018-04-02T07:52:06.883Z,6.00
2018-04-02T07:54:35.229Z,6.10
2018-04-02T07:57:02.855Z,6.00
2018-04-02T07:59:30.440Z,6.00
2018-04-02T08:01:58.007Z,5.80
2018-04-02T08:04:25.592Z,5.80
2018-04-02T08:06:53.203Z,5.80
2018-04-02T08:09:20.783Z,5.70
2018-04-02T08:11:48.367Z,5.90
2018-04-02T08:14:16.752Z,5.70
2018-04-02T08:16:44.335Z,5.60
2018-04-02T08:19:11.919Z,5.70
2018-04-02T08:21:40.298Z,5.70
2018-04-02T08:24:07.875Z,5.70
2018-04-02T08:26:35.442Z,5.80
2018-04-02T08:29:03.048Z,5.90
2018-04-02T08:31:30.629Z,5.90
2018-04-02T08:33:58.216Z,6.00
2018-04-02T08:36:26.136Z,6.20
2018-04-02T08:38:53.774Z,6.30
2018-04-02T08:41:22.077Z,6.30
2018-04-02T08:43:49.679Z,6.20
2018-04-02T08:46:17.261Z,6.30
2018-04-02T08:48:45.611Z,6.50
2018-04-02T08:51:13.240Z,6.50
2018-04-02T08:53:41.580Z,6.60
2018-04-02T08:56:09.167Z,6.50
2018-04-02T08:58:36.784Z,6.70
2018-04-02T09:01:04.361Z,6.80
2018-04-02T09:03:31.952Z,6.80
2018-04-02T09:05:59.564Z,6.70
2018-04-02T09:08:27.135Z,6.70
2018-04-02T09:10:55.302Z,6.70
2018-04-02T09:13:22.915Z,6.70
2018-04-02T09:15:51.256Z,6.40
2018-04-02T09:18:18.827Z,6.30
2018-04-02T09:20:46.441Z,6.40
2018-04-02T09:23:14.028Z,6.50
2018-04-02T09:25:42.375Z,6.60
2018-04-02T09:28:09.988Z,6.50
2018-04-02T09:30:38.001Z,6.70
2018-04-02T09:33:05.585Z,6.60
2018-04-02T09:35:33.190Z,6.60
2018-04-02T09:38:00.767Z,6.70
2018-04-02T09:40:28.359Z,6.80
2018-04-02T09:42:56.737Z,7.20
2018-04-02T09:45:24.315Z,7.10
2018-04-02T09:47:51.896Z,7.20
2018-04-02T09:50:19.535Z,7.20
2018-04-02T09:52:47.125Z,7.30
2018-04-02T09:55:14.717Z,7.60
2018-04-02T09:57:43.106Z,7.80
2018-04-02T10:00:11.464Z,8.20
2018-04-02T10:02:39.041Z,8.20
2018-04-02T10:05:06.755Z,8.30
2018-04-02T10:07:34.257Z,8.40
2018-04-02T10:10:01.928Z,8.40
2018-04-02T10:12:29.483Z,8.50
2018-04-02T10:14:57.862Z,9.10
2018-04-02T10:17:25.422Z,9.00
2018-04-02T10:19:53.041Z,9.80
2018-04-02T10:22:20.631Z,10.30
2018-04-02T10:24:48.220Z,10.30
2018-04-02T10:27:15.839Z,10.20
2018-04-02T10:29:44.194Z,10.70
2018-04-02T10:32:11.859Z,10.60
2018-04-02T10:34:39.418Z,11.20
2018-04-02T10:37:07.016Z,11.60
2018-04-02T10:39:34.596Z,12.40
2018-04-02T10:42:02.197Z,12.60
2018-04-02T10:44:29.802Z,13.20
2018-04-02T10:46:57.450Z,12.50
2018-04-02T10:49:25.068Z,12.50
2018-04-02T10:51:52.648Z,13.10
2018-04-02T10:54:20.258Z,13.20
2018-04-02T10:56:48.635Z,13.60
2018-04-02T10:59:16.224Z,13.60
2018-04-02T11:01:43.798Z,14.00
2018-04-02T11:04:11.388Z,13.80
2018-04-02T11:06:38.971Z,14.60
2018-04-02T11:09:06.552Z,14.40
2018-04-02T11:11:34.164Z,14.10
2018-04-02T11:14:01.752Z,13.90
2018-04-02T11:16:30.108Z,14.40
2018-04-02T11:18:59.213Z,14.30
2018-04-02T11:21:26.809Z,14.20
2018-04-02T11:23:54.387Z,14.10
2018-04-02T11:26:21.985Z,14.20
2018-04-02T11:28:49.544Z,14.10
2018-04-02T11:31:17.094Z,14.60
2018-04-02T11:33:44.707Z,14.80
2018-04-02T11:36:12.292Z,14.60
2018-04-02T11:38:39.879Z,14.50
2018-04-02T11:41:08.240Z,15.00
2018-04-02T11:43:35.805Z,14.90
2018-04-02T11:46:04.159Z,14.30
2018-04-02T11:48:31.779Z,14.20
2018-04-02T11:50:59.349Z,14.70
2018-04-02T11:53:26.908Z,14.80
2018-04-02T11:55:54.498Z,14.80
2018-04-02T11:58:22.061Z,15.20
2018-04-02T12:00:49.615Z,15.80
2018-04-02T12:03:17.218Z,15.10
2018-04-02T12:05:44.801Z,15.40
2018-04-02T12:08:13.225Z,14.30
2018-04-02T12:10:40.841Z,14.20
2018-04-02T12:13:09.194Z,12.50
2018-04-02T12:15:36.781Z,12.40
2018-04-02T12:18:04.402Z,12.90
2018-04-02T12:20:31.986Z,13.90
2018-04-02T12:23:00.328Z,14.90
2018-04-02T12:25:27.937Z,14.90
2018-04-02T12:27:56.265Z,15.80
2018-04-02T12:30:23.825Z,15.70
2018-04-02T12:32:52.234Z,16.20
2018-04-02T12:35:19.811Z,16.20
2018-04-02T12:37:47.363Z,16.20
2018-04-02T12:40:15.049Z,15.50
2018-04-02T12:42:42.607Z,15.80
2018-04-02T12:45:10.188Z,14.30
2018-04-02T12:47:37.872Z,14.10
2018-04-02T12:50:05.470Z,14.50
2018-04-02T12:52:33.055Z,14.00
2018-04-02T12:55:01.447Z,14.60
2018-04-02T12:57:29.066Z,14.50
2018-04-02T12:59:56.582Z,15.30
2018-04-02T13:02:24.159Z,15.40
2018-04-02T13:04:51.712Z,15.80
2018-04-02T13:07:19.265Z,15.70
2018-04-02T13:09:46.843Z,15.10
2018-04-02T13:12:14.455Z,15.00
2018-04-02T13:14:42.020Z,14.60
2018-04-02T13:17:09.654Z,15.10
2018-04-02T13:19:37.961Z,16.40
2018-04-02T13:22:05.533Z,16.30
2018-04-02T13:24:33.119Z,15.80
2018-04-02T13:27:00.710Z,15.20
2018-04-02T13:29:28.269Z,15.50
2018-04-02T13:31:55.919Z,15.80
2018-04-02T13:34:23.523Z,16.10
2018-04-02T13:36:51.087Z,16.10
2018-04-02T13:39:18.675Z,16.00
2018-04-02T13:41:47.040Z,14.70
2018-04-02T13:44:14.630Z,14.70
2018-04-02T13:46:42.249Z,15.00
2018-04-02T13:49:09.836Z,15.50
2018-04-02T13:51:37.490Z,16.00
2018-04-02T13:54:05.109Z,16.50
2018-04-02T13:56:32.710Z,15.80
2018-04-02T13:59:01.056Z,16.30
2018-04-02T14:01:28.654Z,16.30
2018-04-02T14:03:56.314Z,16.80
2018-04-02T14:19:28.459Z,15.90
2018-04-02T14:21:56.122Z,15.10
2018-04-02T14:24:23.673Z,14.80
2018-04-02T14:26:51.280Z,14.70
2018-04-02T14:29:18.901Z,14.60
2018-04-02T14:31:47.221Z,14.00
2018-04-02T14:34:14.844Z,13.90
2018-04-02T14:36:43.214Z,13.20
2018-04-02T14:39:10.805Z,13.20
2018-04-02T14:41:39.197Z,12.80
2018-04-02T14:44:07.555Z,12.40
2018-04-02T14:46:35.158Z,12.40
2018-04-02T14:49:02.779Z,11.80
2018-04-02T14:51:30.386Z,11.90
2018-04-02T14:53:57.979Z,12.00
2018-04-02T14:56:25.623Z,12.00
2018-04-02T14:58:53.209Z,11.80
2018-04-02T15:01:20.792Z,11.80
2018-04-02T15:03:48.410Z,11.80
2018-04-02T15:06:16.005Z,11.60
2018-04-02T15:08:43.596Z,11.50
2018-04-02T15:11:11.197Z,11.50
2018-04-02T15:13:38.784Z,11.40
2018-04-02T15:16:07.147Z,11.40
2018-04-02T15:18:34.756Z,11.40
2018-04-02T15:21:02.354Z,11.50
2018-04-02T15:23:29.940Z,11.40
2018-04-02T16:47:54.768Z,11.40
2018-04-02T16:50:23.115Z,10.30
2018-04-02T16:52:50.697Z,10.20
2018-04-02T16:55:18.304Z,10.20
2018-04-02T16:57:46.663Z,10.20
2018-04-02T17:00:14.248Z,10.10
2018-04-02T17:02:41.882Z,10.20
2018-04-02T17:05:09.467Z,10.20
2018-04-02T17:07:37.060Z,10.20
2018-04-02T17:10:04.688Z,10.10
2018-04-02T17:12:32.285Z,10.00
2018-04-02T17:14:59.868Z,9.90
2018-04-02T17:17:27.472Z,9.90
2018-04-02T17:19:55.057Z,9.80
2018-04-02T17:22:23.405Z,9.60
2018-04-02T17:24:51.021Z,9.50
2018-04-02T17:27:19.465Z,9.40
2018-04-02T17:29:47.038Z,9.30
2018-04-02T17:32:14.652Z,9.30
2018-04-02T17:34:42.232Z,9.20
2018-04-02T17:37:10.567Z,9.00
2018-04-02T17:39:38.176Z,8.90
2018-04-02T17:42:05.758Z,8.90
2018-04-02T17:44:33.342Z,8.70
2018-04-02T17:47:01.720Z,8.60
2018-04-02T17:49:29.306Z,8.50
2018-04-02T17:51:57.650Z,8.40
2018-04-02T17:54:25.270Z,8.30
2018-04-02T17:56:53.799Z,8.10
2018-04-02T17:59:21.394Z,8.10
2018-04-02T18:01:49.024Z,8.00
2018-04-02T18:04:16.608Z,7.90
2018-04-02T18:06:44.187Z,7.80
2018-04-02T18:09:11.799Z,7.70
2018-04-02T18:11:39.385Z,7.60
2018-04-02T18:14:06.972Z,7.50
2018-04-02T18:16:34.567Z,7.40
2018-04-02T18:19:02.139Z,7.40
2018-04-02T18:21:29.717Z,7.30
2018-04-02T18:23:57.320Z,7.30
2018-04-02T18:26:24.902Z,7.20
2018-04-02T18:28:52.475Z,7.10
2018-04-02T18:31:20.094Z,7.00
2018-04-02T18:33:48.457Z,6.80
2018-04-02T18:36:16.040Z,6.80
2018-04-02T18:38:43.658Z,6.80
2018-04-02T18:41:11.241Z,6.70
2018-04-02T18:43:38.822Z,6.70
2018-04-02T18:46:06.433Z,6.60
2018-04-02T18:48:34.009Z,6.50
2018-04-02T18:51:01.586Z,6.50
2018-04-02T18:53:29.972Z,6.30
2018-04-02T18:55:57.539Z,6.30
2018-04-02T18:58:25.123Z,6.30
2018-04-02T19:00:52.969Z,6.20
2018-04-02T19:03:20.539Z,6.20
2018-04-02T19:05:48.109Z,6.20
2018-04-02T19:08:15.718Z,6.10
2018-04-02T19:10:43.292Z,6.10
2018-04-02T19:13:10.873Z,6.00
2018-04-02T19:15:39.254Z,6.00
2018-04-02T19:18:06.840Z,5.90
2018-04-02T19:20:34.417Z,5.90
2018-04-02T19:23:02.793Z,5.80
2018-04-02T19:25:30.373Z,5.80
2018-04-02T19:27:58.713Z,5.70
2018-04-02T19:30:26.320Z,5.70
2018-04-02T19:32:53.903Z,5.70
2018-04-02T19:35:22.378Z,5.60
2018-04-02T19:37:49.992Z,5.60
2018-04-02T19:40:17.571Z,5.60
2018-04-02T19:42:45.152Z,5.50
2018-04-02T19:45:12.768Z,5.50
2018-04-02T19:47:40.349Z,5.50
2018-04-02T19:50:07.972Z,5.40
2018-04-02T19:52:35.854Z,5.40
2018-04-02T19:55:03.843Z,5.40
2018-04-02T19:57:31.452Z,5.30
2018-04-02T19:59:59.071Z,5.30
2018-04-02T20:02:26.655Z,5.30
2018-04-02T20:04:54.267Z,5.20
2018-04-02T20:07:21.964Z,5.20
2018-04-02T20:09:50.531Z,5.20
2018-04-02T20:12:18.418Z,5.10
2018-04-02T20:14:46.263Z,5.20
2018-04-02T20:17:13.876Z,5.20
2018-04-02T20:19:41.487Z,5.10
2018-04-02T20:22:09.868Z,5.20
2018-04-02T20:24:38.220Z,5.20
2018-04-02T20:27:06.089Z,5.10
2018-04-02T20:29:33.688Z,5.10
2018-04-02T20:32:01.285Z,5.10
2018-04-02T20:34:29.645Z,5.10
2018-04-02T20:36:57.247Z,5.00
2018-04-02T20:39:25.597Z,5.00
2018-04-02T20:41:53.172Z,5.00
2018-04-02T20:44:20.788Z,5.00
2018-04-02T20:46:49.143Z,4.90
2018-04-02T20:49:16.892Z,4.90
2018-04-02T20:51:44.543Z,5.00
2018-04-02T20:54:12.134Z,5.00
2018-04-02T20:56:39.707Z,5.00
2018-04-02T20:59:07.321Z,4.90
2018-04-02T21:01:34.908Z,4.90
2018-04-02T21:04:02.496Z,4.90
2018-04-02T21:06:30.872Z,5.10
2018-04-02T21:08:58.453Z,5.10
2018-04-02T21:11:26.824Z,5.20
2018-04-02T21:13:54.521Z,5.10
2018-04-02T21:16:23.012Z,5.20
2018-04-02T21:18:50.636Z,5.10
2018-04-02T21:21:18.244Z,5.10
2018-04-02T21:23:45.816Z,5.30
2018-04-02T21:26:13.409Z,5.30
2018-04-02T21:28:41.864Z,5.60
2018-04-02T21:31:09.477Z,5.50
2018-04-02T21:33:37.107Z,5.50
2018-04-02T21:36:04.712Z,5.40
2018-04-02T21:38:32.283Z,5.40
2018-04-02T21:40:59.856Z,5.40
2018-04-02T21:43:27.473Z,5.40
2018-04-02T21:45:55.049Z,5.30
2018-04-02T21:48:22.624Z,5.30
2018-04-02T21:50:50.297Z,5.40
2018-04-02T21:53:17.884Z,5.50
2018-04-02T21:55:45.466Z,5.60
2018-04-02T21:58:13.073Z,5.80
2018-04-02T22:00:40.712Z,5.80
2018-04-02T22:03:08.288Z,6.10
2018-04-02T22:05:35.900Z,6.40
2018-04-02T22:08:09.340Z,7.00
2018-04-02T22:10:36.936Z,7.20
2018-04-02T22:13:04.511Z,7.50
2018-04-02T22:15:32.088Z,7.60
2018-04-02T22:17:59.692Z,7.70
2018-04-02T22:20:27.276Z,7.70
2018-04-02T22:22:55.629Z,7.80
2018-04-02T22:25:23.249Z,7.80
2018-04-02T22:27:51.591Z,8.00
2018-04-02T22:30:19.168Z,7.90
2018-04-02T22:32:46.775Z,8.10
2018-04-02T22:35:14.364Z,8.20
2018-04-02T22:37:42.703Z,8.20
2018-04-02T22:40:10.304Z,8.20
2018-04-02T22:42:38.328Z,8.20
2018-04-02T22:45:05.965Z,8.20
2018-04-02T22:47:33.576Z,8.30
2018-04-02T22:50:01.145Z,8.40
2018-04-02T22:52:28.729Z,8.40
2018-04-02T22:54:56.316Z,8.30
2018-04-02T22:57:23.896Z,8.30
2018-04-02T22:59:51.477Z,8.30
2018-04-02T23:02:19.084Z,8.30
2018-04-02T23:04:47.425Z,8.30
2018-04-02T23:07:15.005Z,8.30
2018-04-02T23:09:42.620Z,8.40
2018-04-02T23:12:10.183Z,8.50
2018-04-02T23:14:37.861Z,8.60
2018-04-02T23:17:05.469Z,8.70
2018-04-02T23:19:33.048Z,8.80
2018-04-02T23:22:00.644Z,8.90
2018-04-02T23:24:28.280Z,8.80
2018-04-02T23:26:56.714Z,8.90
2018-04-02T23:29:24.292Z,8.80
2018-04-02T23:31:51.904Z,9.00
2018-04-02T23:34:20.249Z,9.10
2018-04-02T23:36:47.825Z,9.00
2018-04-02T23:39:15.440Z,9.00
2018-04-02T23:41:43.785Z,9.10
2018-04-02T23:44:11.360Z,9.00
2018-04-02T23:46:38.968Z,9.10
2018-04-02T23:49:06.546Z,9.10
2018-04-02T23:51:34.123Z,9.10
2018-04-02T23:54:02.493Z,9.00
2018-04-02T23:56:30.860Z,9.00
2018-04-02T23:58:58.432Z,9.10
